aviador You're here:

KPOV Decoded Metar

in
Report Time2017-11-25 03:14:00
UTC Time2017-11-25 03:40:08
Flight Rules vfr VFR
Wind180° at 06 kt
W.Decomp.*RWY 09: 6.0 kt RCW
W.Rank180° ranks 27
Current wind is above 180° avg. (4.7)
Visibility9999 m
Phenomena:N/A
Clouds:N/A
Expected CloudBase > 6,000 ft AGL from Temp-Dew spread
CeilingNone
Temp08°C
Dew Point-7°C (34% RH)
AAT3.0°C
QNH1006 hPa
Raw Report
KPOV 250314Z AUTO 18006KT 10SM CLR 08/M07 A2971 RMK AO2
T00791069=

Extra information for KPOV:More info

Social comments